Pagrindinis puslapis
METAR-TAF:

METAR-TAF

Oro uostai :

Vekšė, Švedija

platuma: 56-51N, ilguma: 014-50E, Aukštis: 199 m

Dabartinis oras

Ataskaita buvo paskelbta 30 minutes, ne 13:20 UTC
Vėjas 7 kt iš Šiaurės Vakarų, svyruoja nuo Vakarų/Šiaurės Vakarų ir Šiaurės
Temperatūra 8°C
Drėgmė 39%
Slėgis 1014 hPa
Matomumas 10 km arba daugiau

METAR: ESMX 201320Z AUTO 32007KT 290V350 9999 OVC064/// 08/M05 Q1014

Laikas: 15:50 (13:50 UTC)

Prognozė

Ataskaita buvo paskelbta 8 valandos ir 20 minutes, ne 05:30 UTC
Prognozė galioja nuo 20 metu 06 UTC su 20 metu 10 UTC
Vėjas 5 kt iš Vakarų/Šiaurės Vakarų
Matomumas 10 km arba daugiau
Su prošvaistėmis ne aukštis 4500 ft

TAF: ESMX 200530Z 2006/2010 30005KT 9999 BKN045

Orai ataskaitas ir orų prognozės (METAR, TAF).

turimą stotys yra geltonos ir raudonos taškus žemėlapyje.

Perkelti pele per norėdami pamatyti stoties vardą.

Tada spustelėkite, norėdami matyti oro stebėjimo ir prognozės.

Norėdami pakeisti žemėlapį: spustelėkite ant žalios mygtukų su juodo kryžiaus žemyn,; žalią mygtuką su brūkšneliu, jei norite nutolinti; arba žalių rodyklių gretimoms žemėlapius.


METAR-TAF: